Desert Aire, WA

8:20 PM PDT on April 18, 2015 (GMT -0700)
Yakima Air Term-McAllister | | Change Station
CLOSE
Current Station
Airport
Location: Yakima,
Elevation: 1066 ft
Nearby Weather Stations

Elev 1066 ft 46.57 °N, 120.54 °W | Updated 27 minutes ago

Clear
Clear
66 °F
Feels Like 66 °F
N
5
Wind Variable Wind from South

Today
High -- | Low -- °F
--% Chance of Precip.
Yesterday
High -- | Low -- °F
Precip. -- in
6:07 AM 7:51 PM
New Moon, 0% visible
Pressure 30.15 in
Visibility 10.0 miles
Clouds Clear
Dew Point 27 °F
Humidity 23%
Rainfall 0.00 in
Snow Depth Not available.
UV 0 out of 12
Pollen 10.90 out of 12
Air Quality Not available.
Flu Activity Regional
METAR KYKM 190253Z 18004KT 10SM CLR 19/M03 A3015 RMK AO2 SLP208 T01891028 56014 $

More Conditions Fewer Conditions

Pressure 30.15 in
Visibility 10.0 miles
Clouds Clear
Dew Point 27 °F
Humidity 23%
Rainfall 0.00 in
Snow Depth Not available.
UV 0 out of 12
Pollen 10.90 out of 12
Air Quality Not available.
Flu Activity Regional
METAR KYKM 190253Z 18004KT 10SM CLR 19/M03 A3015 RMK AO2 SLP208 T01891028 56014 $

More Conditions Fewer Conditions

10-Day Weather Forecast

Almanac

Astronomy

Apr. 18, 2015 Rise Set
Actual Time
Civil Twilight
Nautical Twilight
Astronomical Twilight
Moon
Length of Visible Light
Length of Day
Tomorrow will be .
, % of the Moon is Illuminated

Today's Extremes

State Highs State Lows

Community

WunderPhotos

Upload Photos

1,814,693 photos uploaded!

WunderBlogs® & News

Nearby

Air Quality

  Air Quality AQ Index Pollutant
Not available.

Snow Depth

Station Depth Elevation

Earthquake Activity

City Distance Mag. Time & Date
Minimum magnitude displayed is 2.5.

Coastal Water Temperatures

Place Temperature

Stations

Nearby Weather Stations

Station Location Temp. Windchill Dew Point Humidity Wind Precip. Elev Updated Type